Weather at Washington Dulles International Airport

Public forecast

Using degrees Fahrenheit for public forecast. Weather courtesy of forecast.io.

Current aviation weather report (METAR) for Washington Dulles International Airport

Retrieved 2021/03/02 16:52 UTC (2 hours ago):

KIAD 021652Z 33012G18KT 10SM FEW200 03/M11 A3031 RMK AO2 SLP265 T00331111

Aviation forecast (TAF) for Washington Dulles International Airport

Forecast is more than 6 hours old.

Retrieved 2021/03/02 12:22 UTC (6 hours ago):

TAF KIAD 021120Z 0212/0318 34013G22KT P6SM SKC FM021800 30008KT P6SM SKC FM022300 20004KT P6SM FEW250 FM031400 25005KT P6SM FEW250